Terminal Aerodrome Forecast
Issued by NWS Twin Cities, MN

Home | Current Version | Previous Version | Graphics & Text | Print | Product List | Glossary On
Versions: 1 2 3 4 5 6 7 8 9 10 11 12 13 14 15 16 17 18 19 20 21 22 23 24 25
440
FTUS43 KMPX 041457 AAA
TAFMSP
TAF AMD
KMSP 041457Z 0415/0518 34014G22KT P6SM FEW050
     FM042300 35009KT P6SM SKC
     FM050200 VRB03KT P6SM SKC
     FM051500 22007KT P6SM SCT250=

USA.gov is the U.S. government's official web portal to all federal, state and local government web resources and services.